createdAt,value
2023-04-25T00:00:18.444Z,100901.13
2023-04-25T00:02:45.694Z,100911.63
2023-04-25T00:05:13.470Z,100906.38
2023-04-25T00:07:40.642Z,100912.47
2023-04-25T00:10:08.932Z,100915.97
2023-04-25T00:12:36.996Z,100916.84
2023-04-25T00:15:04.812Z,100919.41
2023-04-25T00:17:32.492Z,100917.66
2023-04-25T00:19:59.554Z,100922.00
2023-04-25T00:22:26.555Z,100924.56
2023-04-25T00:24:54.487Z,100921.09
2023-04-25T00:27:21.543Z,100925.44
2023-04-25T00:29:48.511Z,100922.81
2023-04-25T00:32:15.583Z,100926.31
2023-04-25T00:34:42.515Z,100921.00
2023-04-25T00:37:09.964Z,100919.25
2023-04-25T00:39:37.005Z,100920.97
2023-04-25T00:42:04.546Z,100922.69
2023-04-25T00:44:33.313Z,100921.75
2023-04-25T00:47:02.795Z,100911.25
2023-04-25T00:49:29.851Z,100908.63
2023-04-25T00:51:58.072Z,100912.13
2023-04-25T00:54:25.671Z,100915.59
2023-04-25T00:56:53.514Z,100912.97
2023-04-25T00:59:21.575Z,100916.44
2023-04-25T01:01:48.767Z,100919.06
2023-04-25T01:04:16.033Z,100918.09
2023-04-25T01:06:43.345Z,100915.47
2023-04-25T01:09:11.306Z,100918.91
2023-04-25T01:11:38.551Z,100916.25
2023-04-25T01:14:05.530Z,100909.25
2023-04-25T01:16:34.281Z,100914.50
2023-04-25T01:19:01.620Z,100916.25
2023-04-25T01:21:30.835Z,100912.72
2023-04-25T01:23:58.669Z,100916.13
2023-04-25T01:26:26.654Z,100918.69
2023-04-25T01:28:53.850Z,100913.34
2023-04-25T01:31:21.097Z,100921.09
2023-04-25T01:33:49.824Z,100922.78
2023-04-25T01:36:17.504Z,100922.69
2023-04-25T01:38:45.069Z,100925.25
2023-04-25T01:41:12.326Z,100919.06
2023-04-25T01:43:39.633Z,100919.88
2023-04-25T01:46:06.926Z,100924.16
2023-04-25T01:48:33.956Z,100924.97
2023-04-25T01:51:00.982Z,100932.72
2023-04-25T01:53:28.515Z,100932.66
2023-04-25T01:55:55.740Z,100929.06
2023-04-25T01:58:22.727Z,100931.66
2023-04-25T02:00:49.761Z,100936.78
2023-04-25T02:03:17.074Z,100942.03
2023-04-25T02:05:44.161Z,100938.50
2023-04-25T02:08:11.435Z,100940.22
2023-04-25T02:10:38.753Z,100937.59
2023-04-25T02:13:06.355Z,100942.88
2023-04-25T02:15:33.416Z,100947.31
2023-04-25T02:18:01.401Z,100955.22
2023-04-25T02:20:31.196Z,100951.75
2023-04-25T02:22:58.327Z,100940.44
2023-04-25T02:25:25.755Z,100953.63
2023-04-25T02:27:52.952Z,100953.72
2023-04-25T02:30:20.541Z,100954.63
2023-04-25T02:32:48.061Z,100957.25
2023-04-25T02:35:15.060Z,100955.59
2023-04-25T02:37:43.463Z,100960.03
2023-04-25T02:40:11.282Z,100958.31
2023-04-25T02:42:38.259Z,100955.72
2023-04-25T02:45:05.952Z,100958.38
2023-04-25T02:47:33.191Z,100950.53
2023-04-25T02:50:00.332Z,100956.63
2023-04-25T02:52:27.374Z,100955.69
2023-04-25T02:54:54.409Z,100961.75
2023-04-25T02:57:21.473Z,100958.25
2023-04-25T02:59:48.474Z,100952.09
2023-04-25T03:02:15.915Z,100949.50
2023-04-25T03:04:43.238Z,100950.31
2023-04-25T03:07:10.934Z,100950.31
2023-04-25T03:09:37.933Z,100955.53
2023-04-25T03:12:05.418Z,100952.00
2023-04-25T03:14:32.538Z,100950.25
2023-04-25T03:16:59.521Z,100959.81
2023-04-25T03:19:26.773Z,100965.00
2023-04-25T03:21:54.642Z,100961.47
2023-04-25T03:24:21.637Z,100964.94
2023-04-25T03:26:48.653Z,100967.50
2023-04-25T03:29:15.684Z,100970.94
2023-04-25T03:31:42.820Z,100963.97
2023-04-25T03:34:09.897Z,100965.75
2023-04-25T03:36:36.866Z,100968.41
2023-04-25T03:39:03.969Z,100971.00
2023-04-25T03:41:31.159Z,100969.25
2023-04-25T03:43:58.147Z,100970.13
2023-04-25T03:46:25.238Z,100970.16
2023-04-25T03:48:52.329Z,100962.31
2023-04-25T03:51:19.311Z,100972.81
2023-04-25T03:53:46.347Z,100971.94
2023-04-25T03:56:13.317Z,100965.84
2023-04-25T03:58:40.477Z,100971.06
2023-04-25T04:01:08.886Z,100971.97
2023-04-25T04:03:37.404Z,100980.75
2023-04-25T04:06:09.916Z,100981.63
2023-04-25T04:08:36.968Z,100980.75
2023-04-25T04:11:04.239Z,100987.72
2023-04-25T04:13:31.540Z,100981.66
2023-04-25T04:15:59.126Z,100981.66
2023-04-25T04:18:26.391Z,100986.06
2023-04-25T04:20:53.388Z,100992.16
2023-04-25T04:23:21.702Z,100991.34
2023-04-25T04:25:48.936Z,100986.13
2023-04-25T04:28:17.268Z,100993.13
2023-04-25T04:30:48.032Z,101001.88
2023-04-25T04:33:19.921Z,100994.03
2023-04-25T04:35:47.932Z,101001.97
2023-04-25T04:38:16.584Z,101005.47
2023-04-25T04:40:44.141Z,101004.63
2023-04-25T04:43:11.403Z,100998.56
2023-04-25T04:45:41.594Z,101014.31
2023-04-25T04:48:09.766Z,101014.38
2023-04-25T04:50:36.887Z,101010.03
2023-04-25T04:53:05.326Z,101009.25
2023-04-25T04:55:32.398Z,101008.44
2023-04-25T04:57:59.404Z,101011.16
2023-04-25T05:00:29.506Z,101016.44
2023-04-25T05:02:57.779Z,101022.66
2023-04-25T05:05:25.158Z,101032.34
2023-04-25T05:07:52.439Z,101035.13
2023-04-25T05:10:21.216Z,101043.91
2023-04-25T05:12:48.381Z,101050.88
2023-04-25T05:15:15.825Z,101046.50
2023-04-25T05:17:42.957Z,101045.63
2023-04-25T05:20:10.846Z,101053.50
2023-04-25T05:22:38.394Z,101059.59
2023-04-25T05:25:06.448Z,101063.97
2023-04-25T05:27:33.527Z,101063.22
2023-04-25T05:30:00.872Z,101065.16
2023-04-25T05:32:28.354Z,101066.25
2023-04-25T05:34:55.582Z,101062.91
2023-04-25T05:37:22.894Z,101056.84
2023-04-25T05:39:49.887Z,101069.25
2023-04-25T05:42:16.989Z,101070.28
2023-04-25T05:44:44.063Z,101072.25
2023-04-25T05:47:11.218Z,101073.28
2023-04-25T05:49:38.354Z,101082.09
2023-04-25T05:52:05.789Z,101084.81
2023-04-25T05:54:32.775Z,101095.41
2023-04-25T05:56:59.832Z,101091.94
2023-04-25T05:59:26.925Z,101094.63
2023-04-25T06:01:53.934Z,101095.56
2023-04-25T06:04:21.388Z,101092.13
2023-04-25T06:06:48.661Z,101096.50
2023-04-25T06:09:15.644Z,101105.34
2023-04-25T06:11:42.695Z,101095.81
2023-04-25T06:14:09.876Z,101102.03
2023-04-25T06:16:36.981Z,101109.13
2023-04-25T06:19:03.948Z,101114.41
2023-04-25T06:21:30.951Z,101114.44
2023-04-25T06:23:57.948Z,101114.53
2023-04-25T06:26:24.981Z,101119.00
2023-04-25T06:28:51.989Z,101107.72
2023-04-25T06:31:19.002Z,101109.47
2023-04-25T06:33:46.236Z,101120.06
2023-04-25T06:36:13.240Z,101113.13
2023-04-25T06:38:40.264Z,101121.25
2023-04-25T06:41:07.405Z,101128.44
2023-04-25T06:43:34.575Z,101129.34
2023-04-25T06:46:01.856Z,101127.63
2023-04-25T06:48:29.198Z,101130.25
2023-04-25T06:50:57.452Z,101143.41
2023-04-25T06:53:24.589Z,101149.53
2023-04-25T06:55:51.676Z,101147.81
2023-04-25T06:58:19.480Z,101149.50
2023-04-25T07:00:46.552Z,101150.34
2023-04-25T07:03:13.706Z,101148.63
2023-04-25T07:05:40.847Z,101150.31
2023-04-25T07:08:07.861Z,101154.69
2023-04-25T07:10:34.870Z,101159.06
2023-04-25T07:13:01.846Z,101161.69
2023-04-25T07:15:28.850Z,101169.59
2023-04-25T07:17:55.941Z,101169.59
2023-04-25T07:20:23.056Z,101176.66
2023-04-25T07:22:51.123Z,101170.50
2023-04-25T07:25:18.533Z,101173.22
2023-04-25T07:27:45.576Z,101179.41
2023-04-25T07:30:13.430Z,101178.59
2023-04-25T07:32:40.810Z,101185.66
2023-04-25T07:35:08.822Z,101179.56
2023-04-25T07:37:36.928Z,101179.63
2023-04-25T07:40:05.244Z,101192.81
2023-04-25T07:42:32.416Z,101193.75
2023-04-25T07:44:59.470Z,101201.69
2023-04-25T07:47:26.608Z,101206.13
2023-04-25T07:49:53.746Z,101213.19
2023-04-25T07:52:20.833Z,101206.97
2023-04-25T07:54:48.802Z,101213.19
2023-04-25T07:57:15.935Z,101222.03
2023-04-25T07:59:42.965Z,101228.31
2023-04-25T08:02:09.992Z,101215.16
2023-04-25T08:04:37.365Z,101231.03
2023-04-25T08:07:04.573Z,101231.94
2023-04-25T08:09:35.598Z,101232.81
2023-04-25T08:12:03.265Z,101235.47
2023-04-25T08:14:36.525Z,101234.59
2023-04-25T08:17:04.664Z,101240.72
2023-04-25T08:19:32.171Z,101254.78
2023-04-25T08:21:59.226Z,101260.06
2023-04-25T08:24:26.243Z,101260.94
2023-04-25T08:26:53.523Z,101260.09
2023-04-25T08:29:20.875Z,101266.22
2023-04-25T08:31:49.220Z,101268.84
2023-04-25T08:34:16.480Z,101260.03
2023-04-25T08:36:43.559Z,101268.78
2023-04-25T08:39:10.537Z,101270.56
2023-04-25T08:41:38.757Z,101276.66
2023-04-25T08:44:10.278Z,101287.25
2023-04-25T08:46:43.348Z,101284.63
2023-04-25T08:49:12.386Z,101292.56
2023-04-25T08:51:51.892Z,101288.19
2023-04-25T08:54:34.178Z,101300.53
2023-04-25T08:57:05.402Z,101303.19
2023-04-25T08:59:34.022Z,101304.94
2023-04-25T09:02:02.011Z,101310.22
2023-04-25T09:04:31.993Z,101316.31
2023-04-25T09:06:59.871Z,101327.72
2023-04-25T09:09:26.918Z,101328.56
2023-04-25T09:11:56.509Z,101329.41
2023-04-25T09:14:27.003Z,101330.28
2023-04-25T09:16:57.097Z,101334.63
2023-04-25T09:19:39.053Z,101340.78
2023-04-25T09:22:08.472Z,101341.63
2023-04-25T09:24:44.603Z,101341.69
2023-04-25T09:27:14.365Z,101345.28
2023-04-25T09:29:43.108Z,101344.41
2023-04-25T09:32:17.028Z,101349.59
2023-04-25T09:34:49.413Z,101356.56
2023-04-25T09:37:21.663Z,101358.09
2023-04-25T09:40:01.472Z,101354.47
2023-04-25T09:42:32.356Z,101352.72
2023-04-25T09:45:03.281Z,101355.22
2023-04-25T09:47:30.390Z,101356.63
2023-04-25T09:49:57.444Z,101357.19
2023-04-25T09:52:26.344Z,101368.78
2023-04-25T09:54:54.313Z,101362.81
2023-04-25T09:57:24.143Z,101369.88
2023-04-25T09:59:56.132Z,101373.63
2023-04-25T10:02:27.260Z,101358.88
2023-04-25T10:04:58.495Z,101359.97
2023-04-25T10:07:31.189Z,101370.72
2023-04-25T10:10:07.003Z,101368.09
2023-04-25T10:12:35.205Z,101369.03
2023-04-25T10:15:04.006Z,101366.31
2023-04-25T10:17:32.609Z,101362.78
2023-04-25T10:20:02.634Z,101360.13
2023-04-25T10:22:38.095Z,101364.50
2023-04-25T10:25:07.644Z,101358.38
2023-04-25T10:27:35.680Z,101355.72
2023-04-25T10:30:19.407Z,101352.84
2023-04-25T10:32:48.214Z,101370.19
2023-04-25T10:35:25.127Z,101367.56
2023-04-25T10:38:11.843Z,101363.06
2023-04-25T10:40:39.244Z,101368.13
2023-04-25T10:43:34.843Z,101366.34
2023-04-25T10:46:02.635Z,101380.22
2023-04-25T10:48:32.052Z,101377.56
2023-04-25T10:51:13.241Z,101374.19
2023-04-25T10:53:40.295Z,101366.25
2023-04-25T10:56:42.344Z,101365.41
2023-04-25T10:59:14.137Z,101376.19
2023-04-25T11:01:52.544Z,101375.44
2023-04-25T11:04:32.037Z,101371.13
2023-04-25T11:07:11.290Z,101367.69
2023-04-25T11:09:42.185Z,101381.03
2023-04-25T11:12:12.489Z,101372.34
2023-04-25T11:17:08.252Z,101370.41
2023-04-25T11:19:35.422Z,101379.88
2023-04-25T11:22:04.401Z,101378.75
2023-04-25T11:24:36.583Z,101378.53
2023-04-25T11:27:07.175Z,101377.78
2023-04-25T11:29:36.144Z,101380.75
2023-04-25T11:32:03.672Z,101380.22
2023-04-25T11:34:34.167Z,101378.63
2023-04-25T11:37:05.220Z,101385.78
2023-04-25T11:39:32.364Z,101392.94
2023-04-25T11:42:00.003Z,101386.81
2023-04-25T11:44:29.630Z,101386.81
2023-04-25T11:46:56.819Z,101385.06
2023-04-25T11:49:25.771Z,101403.50
2023-04-25T11:51:52.927Z,101403.56
2023-04-25T11:54:19.943Z,101408.81
2023-04-25T11:56:47.363Z,101400.88
2023-04-25T11:59:15.209Z,101407.03
2023-04-25T12:01:50.551Z,101404.41
2023-04-25T12:04:23.855Z,101412.31
2023-04-25T12:06:54.258Z,101410.50
2023-04-25T12:09:30.393Z,101413.09
2023-04-25T12:12:00.034Z,101420.94
2023-04-25T12:14:30.046Z,101415.59
2023-04-25T12:16:59.320Z,101424.19
2023-04-25T12:19:27.370Z,101429.53
2023-04-25T12:21:58.631Z,101425.16
2023-04-25T12:24:28.775Z,101424.25
2023-04-25T12:27:09.423Z,101439.19
2023-04-25T12:29:48.577Z,101433.88
2023-04-25T12:32:18.048Z,101438.25
2023-04-25T12:34:46.087Z,101447.03
2023-04-25T12:37:13.871Z,101435.59
2023-04-25T12:39:41.034Z,101432.09
2023-04-25T12:42:13.266Z,101438.25
2023-04-25T12:44:41.651Z,101432.03
2023-04-25T12:47:08.861Z,101437.31
2023-04-25T12:49:35.954Z,101429.06
2023-04-25T12:52:03.041Z,101427.97
2023-04-25T12:54:30.051Z,101424.31
2023-04-25T12:56:57.367Z,101439.59
2023-04-25T12:59:24.472Z,101438.88
2023-04-25T13:01:51.605Z,101445.25
2023-04-25T13:04:18.805Z,101444.50
2023-04-25T13:06:46.062Z,101445.47
2023-04-25T13:09:13.638Z,101441.09
2023-04-25T13:11:42.489Z,101437.56
2023-04-25T13:14:10.791Z,101439.34
2023-04-25T13:16:37.910Z,101449.09
2023-04-25T13:19:04.978Z,101451.72
2023-04-25T13:21:34.919Z,101449.06
2023-04-25T13:24:02.004Z,101454.34
2023-04-25T13:26:29.144Z,101453.41
2023-04-25T13:28:56.144Z,101464.84
2023-04-25T13:31:23.159Z,101451.63
2023-04-25T13:33:51.271Z,101467.56
2023-04-25T13:36:18.479Z,101456.19
2023-04-25T13:38:48.196Z,101466.84
2023-04-25T13:41:19.641Z,101448.31
2023-04-25T13:43:49.061Z,101453.66
2023-04-25T13:46:35.265Z,101446.66
2023-04-25T13:49:12.388Z,101452.78
2023-04-25T13:51:41.349Z,101448.34
2023-04-25T13:54:08.727Z,101452.69
2023-04-25T13:56:36.004Z,101455.25
2023-04-25T13:59:03.054Z,101463.09
2023-04-25T14:01:32.219Z,101461.38
2023-04-25T14:03:59.470Z,101456.16
2023-04-25T14:06:27.147Z,101451.75
2023-04-25T14:08:55.441Z,101454.41
2023-04-25T14:11:22.527Z,101456.22
2023-04-25T14:13:50.598Z,101464.16
2023-04-25T14:16:18.116Z,101464.16
2023-04-25T14:18:45.417Z,101460.56
2023-04-25T14:21:12.492Z,101457.75
2023-04-25T14:23:39.478Z,101461.13
2023-04-25T14:26:06.713Z,101462.72
2023-04-25T14:28:33.763Z,101453.63
2023-04-25T14:31:01.614Z,101464.16
2023-04-25T14:33:28.886Z,101461.66
2023-04-25T14:35:56.086Z,101456.69
2023-04-25T14:38:24.434Z,101456.91
2023-04-25T14:40:51.850Z,101465.91
2023-04-25T14:43:19.104Z,101473.03
2023-04-25T14:45:46.412Z,101466.06
2023-04-25T14:48:13.754Z,101468.69
2023-04-25T14:50:40.955Z,101473.09
2023-04-25T14:53:07.972Z,101464.28
2023-04-25T14:55:34.998Z,101468.69
2023-04-25T14:58:02.116Z,101466.03
2023-04-25T15:00:29.238Z,101466.06
2023-04-25T15:02:57.207Z,101456.38
2023-04-25T15:05:24.430Z,101468.72
2023-04-25T15:07:51.576Z,101466.91
2023-04-25T15:10:20.494Z,101459.81
2023-04-25T15:12:48.012Z,101469.44
2023-04-25T15:15:22.688Z,101465.97
2023-04-25T15:17:52.833Z,101472.13
2023-04-25T15:20:19.946Z,101474.78
2023-04-25T15:22:47.111Z,101474.75
2023-04-25T15:25:14.164Z,101481.59
2023-04-25T15:27:44.507Z,101464.25
2023-04-25T15:30:17.344Z,101467.47
2023-04-25T15:32:48.578Z,101487.63
2023-04-25T15:35:16.320Z,101488.41
2023-04-25T15:37:44.133Z,101485.34
2023-04-25T15:40:16.326Z,101478.88
2023-04-25T15:42:48.209Z,101489.00
2023-04-25T15:45:17.845Z,101507.16
2023-04-25T15:47:46.029Z,101502.41
2023-04-25T15:50:16.221Z,101507.94
2023-04-25T15:52:43.770Z,101505.47
2023-04-25T15:55:12.965Z,101504.63
2023-04-25T15:57:42.074Z,101502.88
2023-04-25T16:00:13.580Z,101508.22
2023-04-25T16:02:42.080Z,101509.91
2023-04-25T16:05:11.318Z,101515.97
2023-04-25T16:07:44.864Z,101513.13
2023-04-25T16:10:13.287Z,101510.16
2023-04-25T16:12:41.122Z,101515.84
2023-04-25T16:15:08.853Z,101517.16
2023-04-25T16:17:36.025Z,101518.94
2023-04-25T16:20:09.789Z,101513.22
2023-04-25T16:22:40.347Z,101511.88
2023-04-25T16:25:08.678Z,101521.34
2023-04-25T16:27:37.993Z,101520.41
2023-04-25T16:30:10.694Z,101519.97
2023-04-25T16:32:38.278Z,101520.81
2023-04-25T16:35:06.004Z,101520.84
2023-04-25T16:37:33.246Z,101519.16
2023-04-25T16:40:00.555Z,101525.94
2023-04-25T16:42:27.604Z,101525.56
2023-04-25T16:44:54.575Z,101523.84
2023-04-25T16:47:22.165Z,101530.88
2023-04-25T16:49:49.234Z,101536.91
2023-04-25T16:52:16.397Z,101529.53
2023-04-25T16:54:43.754Z,101530.34
2023-04-25T16:57:11.474Z,101531.81
2023-04-25T16:59:39.693Z,101530.16
2023-04-25T17:02:10.690Z,101532.28
2023-04-25T17:04:37.918Z,101529.94
2023-04-25T17:07:05.602Z,101541.00
2023-04-25T17:09:32.992Z,101539.41
2023-04-25T17:12:00.437Z,101537.81
2023-04-25T17:14:28.006Z,101553.50
2023-04-25T17:16:55.455Z,101550.28
2023-04-25T17:19:22.769Z,101553.56
2023-04-25T17:21:50.520Z,101551.03
2023-04-25T17:24:18.214Z,101549.22
2023-04-25T17:26:48.166Z,101550.69
2023-04-25T17:29:15.922Z,101554.72
2023-04-25T17:31:44.120Z,101552.97
2023-04-25T17:34:16.505Z,101558.59
2023-04-25T17:36:45.354Z,101571.56
2023-04-25T17:39:14.779Z,101566.47
2023-04-25T17:41:42.092Z,101572.19
2023-04-25T17:44:09.185Z,101568.00
2023-04-25T17:46:36.591Z,101569.88
2023-04-25T17:49:03.736Z,101575.34
2023-04-25T17:51:31.695Z,101569.13
2023-04-25T17:53:58.773Z,101572.50
2023-04-25T17:56:27.592Z,101572.63
2023-04-25T17:58:55.796Z,101582.44
2023-04-25T18:01:23.283Z,101580.13
2023-04-25T18:03:51.703Z,101573.69
2023-04-25T18:06:19.342Z,101589.53
2023-04-25T18:08:47.162Z,101581.16
2023-04-25T18:11:14.438Z,101577.44
2023-04-25T18:13:41.667Z,101578.63
2023-04-25T18:16:08.857Z,101588.50
2023-04-25T18:18:36.943Z,101592.06
2023-04-25T18:21:07.471Z,101600.81
2023-04-25T18:23:34.898Z,101599.00
2023-04-25T18:26:04.066Z,101592.66
2023-04-25T18:28:31.205Z,101592.50
2023-04-25T18:30:58.342Z,101603.78
2023-04-25T18:33:25.435Z,101608.03
2023-04-25T18:38:34.889Z,101606.91
2023-04-25T18:41:26.783Z,101611.13
2023-04-25T18:43:56.218Z,101610.03
2023-04-25T18:46:23.663Z,101618.66
2023-04-25T18:48:55.066Z,101602.72
2023-04-25T18:51:24.133Z,101615.69
2023-04-25T18:53:52.539Z,101619.88
2023-04-25T18:56:22.682Z,101616.22
2023-04-25T18:58:51.440Z,101615.22
2023-04-25T19:01:19.068Z,101613.34
2023-04-25T19:03:46.534Z,101614.16
2023-04-25T19:06:13.638Z,101621.06
2023-04-25T19:08:40.739Z,101621.84
2023-04-25T19:11:20.545Z,101627.91
2023-04-25T19:13:49.446Z,101625.13
2023-04-25T19:16:18.031Z,101625.03
2023-04-25T19:18:46.525Z,101633.69
2023-04-25T19:21:14.037Z,101634.50
2023-04-25T19:23:41.826Z,101637.84
2023-04-25T19:26:09.002Z,101641.25
2023-04-25T19:28:36.074Z,101643.75
2023-04-25T19:31:03.197Z,101644.53
2023-04-25T19:33:30.513Z,101649.72
2023-04-25T19:35:57.586Z,101647.03
2023-04-25T19:38:24.605Z,101648.66
2023-04-25T19:40:51.689Z,101652.00
2023-04-25T19:43:19.645Z,101644.03
2023-04-25T19:45:46.923Z,101647.44
2023-04-25T19:48:14.185Z,101650.84
2023-04-25T19:50:41.732Z,101653.41
2023-04-25T19:53:09.940Z,101655.06
2023-04-25T19:55:37.186Z,101656.75
2023-04-25T19:58:06.738Z,101652.28
2023-04-25T20:00:33.906Z,101654.81
2023-04-25T20:03:01.234Z,101660.84
2023-04-25T20:05:28.406Z,101664.25
2023-04-25T20:07:55.449Z,101671.16
2023-04-25T20:10:23.044Z,101671.00
2023-04-25T20:12:50.037Z,101668.19
2023-04-25T20:15:19.070Z,101671.53
2023-04-25T20:17:46.419Z,101679.28
2023-04-25T20:20:13.832Z,101675.66
2023-04-25T20:22:41.109Z,101683.38
2023-04-25T20:25:10.035Z,101678.94
2023-04-25T20:27:39.916Z,101671.81
2023-04-25T20:30:09.285Z,101677.84
2023-04-25T20:32:37.491Z,101682.97
2023-04-25T20:35:08.637Z,101680.25
2023-04-25T20:37:36.716Z,101680.16
2023-04-25T20:40:07.808Z,101680.97
2023-04-25T20:42:36.494Z,101676.44
2023-04-25T20:45:07.758Z,101677.16
2023-04-25T20:47:35.377Z,101678.78
2023-04-25T20:50:05.934Z,101683.91
2023-04-25T20:52:33.407Z,101677.66
2023-04-25T20:55:00.974Z,101681.00
2023-04-25T20:57:29.262Z,101682.69
2023-04-25T20:59:57.496Z,101675.53
2023-04-25T21:02:24.975Z,101678.03
2023-04-25T21:04:52.024Z,101676.16
2023-04-25T21:07:19.619Z,101684.78
2023-04-25T21:09:47.914Z,101682.91
2023-04-25T21:12:15.199Z,101679.28
2023-04-25T21:14:42.232Z,101677.47
2023-04-25T21:17:09.324Z,101677.34
2023-04-25T21:19:36.358Z,101672.88
2023-04-25T21:22:03.706Z,101678.94
2023-04-25T21:24:33.044Z,101677.09
2023-04-25T21:27:01.094Z,101686.56
2023-04-25T21:29:28.250Z,101683.81
2023-04-25T21:31:56.646Z,101690.69
2023-04-25T21:34:23.828Z,101688.75
2023-04-25T21:36:50.837Z,101696.44
2023-04-25T21:39:17.901Z,101696.16
2023-04-25T21:41:45.001Z,101691.59
2023-04-25T21:44:14.424Z,101687.97
2023-04-25T21:46:41.579Z,101697.47
2023-04-25T21:49:08.711Z,101693.03
2023-04-25T21:51:36.048Z,101698.91
2023-04-25T21:54:05.478Z,101690.03
2023-04-25T21:56:33.255Z,101692.50
2023-04-25T21:59:00.268Z,101692.34
2023-04-25T22:01:28.798Z,101697.47
2023-04-25T22:03:56.209Z,101700.78
2023-04-25T22:06:23.589Z,101702.41
2023-04-25T22:08:51.014Z,101703.06
2023-04-25T22:11:18.180Z,101702.81
2023-04-25T22:13:45.582Z,101705.34
2023-04-25T22:16:12.744Z,101703.41
2023-04-25T22:18:40.580Z,101704.09
2023-04-25T22:21:08.776Z,101708.34
2023-04-25T22:23:37.212Z,101709.91
2023-04-25T22:26:05.069Z,101701.09
2023-04-25T22:28:33.100Z,101703.56
2023-04-25T22:31:00.136Z,101701.75
2023-04-25T22:33:27.614Z,101710.44
2023-04-25T22:35:54.687Z,101705.94
2023-04-25T22:38:22.052Z,101708.44
2023-04-25T22:40:49.070Z,101709.13
2023-04-25T22:43:16.289Z,101708.91
2023-04-25T22:45:43.331Z,101716.59
2023-04-25T22:48:10.484Z,101721.59
2023-04-25T22:50:40.389Z,101723.16
2023-04-25T22:53:10.100Z,101722.81
2023-04-25T22:55:37.372Z,101726.94
2023-04-25T22:58:07.469Z,101735.38
2023-04-25T23:00:35.369Z,101735.16
2023-04-25T23:03:06.289Z,101735.00
2023-04-25T23:05:33.770Z,101736.59
2023-04-25T23:08:00.784Z,101733.88
2023-04-25T23:10:31.031Z,101740.66
2023-04-25T23:13:00.505Z,101736.94
2023-04-25T23:15:30.987Z,101743.69
2023-04-25T23:17:58.912Z,101742.75
2023-04-25T23:20:26.680Z,101742.56
2023-04-25T23:22:54.780Z,101745.03
2023-04-25T23:25:22.459Z,101745.72
2023-04-25T23:27:49.620Z,101739.47
2023-04-25T23:30:16.882Z,101735.84
2023-04-25T23:32:44.032Z,101738.28
2023-04-25T23:35:11.464Z,101736.38
2023-04-25T23:37:43.105Z,101733.66
2023-04-25T23:40:10.779Z,101737.03
2023-04-25T23:42:39.275Z,101729.06
2023-04-25T23:45:08.592Z,101724.59
2023-04-25T23:47:36.745Z,101734.81
2023-04-25T23:50:04.838Z,101733.78
2023-04-25T23:52:32.045Z,101725.81
2023-04-25T23:54:59.113Z,101720.44
2023-04-25T23:57:26.199Z,101724.63
2023-04-25T23:59:53.376Z,101716.63
